Mount Vernon, AL (36560)

5:33 PM CDT on October 22, 2014 (GMT -0500)
Chalet Ridge | Change Station
CLOSE
Current Station
Personal Weather Station
Location: Bay Minette, AL
Elevation: 285 ft
Nearby Weather Stations

Elev 285 ft 30.89 °N, 87.74 °W | Updated 2 seconds ago

Clear
Clear
71.6 °F
Feels Like 77 °F
N
0.0
Wind Variable Wind from ENE
Gusts 5.4 mph

Today
High -- | Low -- °F
--% Chance of Precip.
Yesterday
High -- | Low -- °F
Precip. -- in
6:59 AM 6:12 PM
Waning Crescent, 1% visible
Pressure 30.02 in
Visibility 10.0 miles
Clouds Clear
Heat Index 77 °F
Dew Point 52 °F
Humidity 49%
Rainfall 0.00 in
Snow Depth Not available.
UV 1 out of 12
Pollen 3.10 out of 12
Air Quality Not available.
Flu Activity Sporadic
METAR KMOB 222156Z 01010KT 10SM CLR 24/11 A3003 RMK AO2 SLP166 T02390106

More Conditions Fewer Conditions

Pressure 30.02 in
Visibility 10.0 miles
Clouds Clear
Heat Index 77 °F
Dew Point 52 °F
Humidity 49%
Rainfall 0.00 in
Snow Depth Not available.
UV 1 out of 12
Pollen 3.10 out of 12
Air Quality Not available.
Flu Activity Sporadic
METAR KMOB 222156Z 01010KT 10SM CLR 24/11 A3003 RMK AO2 SLP166 T02390106

More Conditions Fewer Conditions

10-Day Weather Forecast

Almanac

Astronomy

Oct. 22, 2014 Rise Set
Actual Time 6:59 AM CDT 6:12 PM CDT
Civil Twilight 6:35 AM CDT 6:37 PM CDT
Nautical Twilight 6:07 AM CDT 7:05 PM CDT
Astronomical Twilight 5:38 AM CDT 7:33 PM CDT
Moon 5:45 AM CDT 5:36 PM CDT
Length of Visible Light 12h 02m
Length of Day
11h 13m
Tomorrow will be 1m 45s shorter.
Waning Crescent, 1% of the Moon is Illuminated
Today
Waning Crescent
Oct 23
New
Oct 30
First Quarter
Nov 6
Full
Nov 14
Last Quarter

Today's Extremes

State Highs State Lows

Community

WunderPhotos

Upload Photos

1,764,065 photos uploaded!

WunderBlogs® & News

Nearby

Air Quality

  Air Quality AQ Index Pollutant
Yesterday Good
OZONE

Snow Depth

Station Depth Elevation
No new snow has been reported.

Earthquake Activity

City Distance Mag. Time & Date
No recent earthquake activity has been reported nearby.
Minimum magnitude displayed is 2.5.

Coastal Water Temperatures

Place Temperature
Mobile State Docks, AL 75.0 °F
Coast Guard Sector Mobile, AL 75.0 °F

Nearby Weather Stations